createdAt,value
2022-11-05T00:00:15.967Z,0.00
2022-11-05T00:01:16.116Z,0.00
2022-11-05T00:02:16.126Z,0.00
2022-11-05T00:03:16.273Z,0.00
2022-11-05T00:04:16.260Z,0.00
2022-11-05T00:05:16.348Z,0.00
2022-11-05T00:06:16.413Z,0.00
2022-11-05T00:07:16.528Z,0.00
2022-11-05T00:08:16.574Z,0.00
2022-11-05T00:09:16.669Z,0.00
2022-11-05T00:10:16.737Z,0.00
2022-11-05T00:11:18.270Z,0.00
2022-11-05T00:12:16.909Z,0.00
2022-11-05T00:13:16.973Z,0.00
2022-11-05T00:14:17.046Z,0.00
2022-11-05T00:15:17.132Z,0.00
2022-11-05T00:16:17.203Z,0.00
2022-11-05T00:17:17.313Z,0.00
2022-11-05T00:18:17.380Z,0.00
2022-11-05T00:19:17.486Z,0.00
2022-11-05T00:20:17.558Z,0.00
2022-11-05T00:21:17.650Z,0.00
2022-11-05T00:22:17.740Z,0.00
2022-11-05T00:23:17.802Z,0.00
2022-11-05T00:24:23.223Z,0.00
2022-11-05T00:25:17.976Z,0.00
2022-11-05T00:26:18.049Z,0.00
2022-11-05T00:27:18.141Z,0.00
2022-11-05T00:28:18.178Z,0.00
2022-11-05T00:29:18.261Z,0.00
2022-11-05T00:30:18.337Z,0.00
2022-11-05T00:31:18.423Z,0.00
2022-11-05T00:32:18.509Z,0.00
2022-11-05T00:33:18.574Z,0.00
2022-11-05T00:34:18.646Z,0.00
2022-11-05T00:35:18.739Z,0.00
2022-11-05T00:36:18.812Z,0.00
2022-11-05T00:37:18.921Z,0.00
2022-11-05T00:38:18.984Z,0.00
2022-11-05T00:39:19.079Z,0.00
2022-11-05T00:40:19.147Z,0.00
2022-11-05T00:41:19.255Z,0.00
2022-11-05T00:42:19.350Z,0.00
2022-11-05T00:43:19.424Z,0.00
2022-11-05T00:44:19.493Z,0.00
2022-11-05T00:45:19.596Z,0.00
2022-11-05T00:46:19.673Z,0.00
2022-11-05T00:47:19.766Z,0.00
2022-11-05T00:48:19.809Z,0.00
2022-11-05T00:49:19.927Z,0.00
2022-11-05T00:50:20.006Z,0.00
2022-11-05T00:51:20.117Z,0.00
2022-11-05T00:52:20.210Z,0.00
2022-11-05T00:53:20.267Z,0.00
2022-11-05T00:54:20.345Z,0.00
2022-11-05T00:55:20.450Z,0.00
2022-11-05T00:56:20.527Z,0.00
2022-11-05T00:57:20.647Z,0.00
2022-11-05T00:58:20.687Z,0.00
2022-11-05T00:59:20.792Z,0.00
2022-11-05T01:00:20.868Z,0.00
2022-11-05T01:01:21.026Z,0.00
2022-11-05T01:02:21.249Z,0.00
2022-11-05T01:03:21.115Z,0.00
2022-11-05T01:04:21.194Z,0.00
2022-11-05T01:05:21.301Z,0.00
2022-11-05T01:06:21.361Z,0.00
2022-11-05T01:07:21.480Z,0.00
2022-11-05T01:08:21.517Z,0.00
2022-11-05T01:09:21.624Z,0.00
2022-11-05T01:10:21.702Z,0.00
2022-11-05T01:11:21.812Z,0.00
2022-11-05T01:12:21.915Z,0.00
2022-11-05T01:13:21.993Z,0.00
2022-11-05T01:14:22.061Z,0.00
2022-11-05T01:15:22.159Z,0.00
2022-11-05T01:16:22.239Z,0.00
2022-11-05T01:17:22.357Z,0.00
2022-11-05T01:18:22.396Z,0.00
2022-11-05T01:19:22.477Z,0.00
2022-11-05T01:20:22.553Z,0.00
2022-11-05T01:21:22.667Z,0.00
2022-11-05T01:22:22.739Z,0.00
2022-11-05T01:23:22.790Z,0.00
2022-11-05T01:24:22.857Z,0.00
2022-11-05T01:25:22.941Z,0.00
2022-11-05T01:26:22.987Z,0.00
2022-11-05T01:27:23.120Z,0.00
2022-11-05T01:28:23.237Z,0.00
2022-11-05T01:29:23.254Z,0.00
2022-11-05T01:30:23.332Z,0.00
2022-11-05T01:31:23.434Z,0.00
2022-11-05T01:32:23.526Z,0.00
2022-11-05T01:33:23.597Z,0.00
2022-11-05T01:34:23.675Z,0.00
2022-11-05T01:35:23.786Z,0.00
2022-11-05T01:36:23.865Z,0.00
2022-11-05T01:37:24.002Z,0.00
2022-11-05T01:38:24.040Z,0.00
2022-11-05T01:39:24.125Z,0.00
2022-11-05T01:40:24.193Z,0.00
2022-11-05T01:41:24.296Z,0.00
2022-11-05T01:42:24.400Z,0.00
2022-11-05T01:43:24.447Z,0.00
2022-11-05T01:44:24.527Z,0.00
2022-11-05T01:45:24.632Z,0.00
2022-11-05T01:46:24.717Z,0.00
2022-11-05T01:47:24.826Z,0.00
2022-11-05T01:48:24.867Z,0.00
2022-11-05T01:49:24.970Z,0.00
2022-11-05T01:50:25.049Z,0.00
2022-11-05T01:51:25.142Z,0.00
2022-11-05T01:52:25.235Z,0.00
2022-11-05T01:53:25.309Z,0.00
2022-11-05T01:54:25.386Z,0.00
2022-11-05T01:55:25.495Z,0.00
2022-11-05T01:56:25.568Z,0.00
2022-11-05T01:57:25.681Z,0.00
2022-11-05T01:58:25.733Z,0.00
2022-11-05T01:59:25.845Z,0.00
2022-11-05T02:00:25.918Z,0.00
2022-11-05T02:01:26.134Z,0.00
2022-11-05T02:02:26.297Z,0.00
2022-11-05T02:03:26.208Z,0.00
2022-11-05T02:04:26.288Z,0.00
2022-11-05T02:05:26.400Z,0.00
2022-11-05T02:06:26.460Z,0.00
2022-11-05T02:07:26.583Z,0.00
2022-11-05T02:08:26.620Z,0.00
2022-11-05T02:09:26.723Z,0.00
2022-11-05T02:10:26.803Z,0.00
2022-11-05T02:11:26.897Z,0.00
2022-11-05T02:12:27.009Z,0.00
2022-11-05T02:13:27.071Z,0.00
2022-11-05T02:14:27.148Z,0.00
2022-11-05T02:15:27.232Z,0.00
2022-11-05T02:16:27.292Z,0.00
2022-11-05T02:17:27.416Z,0.00
2022-11-05T02:18:27.453Z,0.00
2022-11-05T02:19:27.562Z,0.00
2022-11-05T02:20:27.607Z,0.00
2022-11-05T02:21:27.714Z,0.00
2022-11-05T02:22:27.809Z,0.00
2022-11-05T02:23:27.890Z,0.00
2022-11-05T02:24:27.962Z,0.00
2022-11-05T02:25:28.052Z,0.00
2022-11-05T02:26:28.144Z,0.00
2022-11-05T02:27:28.253Z,0.00
2022-11-05T02:28:28.325Z,0.00
2022-11-05T02:29:28.425Z,0.00
2022-11-05T02:30:28.502Z,0.00
2022-11-05T02:31:28.603Z,0.00
2022-11-05T02:32:28.693Z,0.00
2022-11-05T02:33:28.764Z,0.00
2022-11-05T02:34:28.839Z,0.00
2022-11-05T02:35:28.938Z,0.00
2022-11-05T02:36:29.016Z,0.00
2022-11-05T02:37:29.135Z,0.00
2022-11-05T02:38:29.237Z,0.00
2022-11-05T02:39:29.309Z,0.00
2022-11-05T02:40:29.386Z,0.00
2022-11-05T02:41:29.490Z,0.00
2022-11-05T02:42:29.587Z,0.00
2022-11-05T02:43:29.656Z,0.00
2022-11-05T02:44:29.731Z,0.00
2022-11-05T02:45:29.834Z,0.00
2022-11-05T02:46:29.910Z,0.00
2022-11-05T02:47:30.029Z,0.00
2022-11-05T02:48:30.073Z,0.00
2022-11-05T02:49:30.165Z,0.00
2022-11-05T02:50:30.245Z,0.00
2022-11-05T02:51:30.330Z,0.00
2022-11-05T02:52:30.421Z,0.00
2022-11-05T02:53:30.495Z,0.00
2022-11-05T02:54:30.574Z,0.00
2022-11-05T02:55:30.661Z,0.00
2022-11-05T02:56:30.744Z,0.00
2022-11-05T02:57:30.930Z,0.00
2022-11-05T02:58:30.887Z,0.00
2022-11-05T02:59:30.990Z,0.00
2022-11-05T03:00:31.056Z,0.00
2022-11-05T03:01:31.362Z,0.00
2022-11-05T03:02:31.382Z,0.00
2022-11-05T03:03:31.337Z,0.00
2022-11-05T03:04:31.410Z,0.00
2022-11-05T03:05:31.517Z,0.00
2022-11-05T03:06:31.606Z,0.00
2022-11-05T03:07:31.710Z,0.00
2022-11-05T03:08:31.751Z,0.00
2022-11-05T03:09:31.848Z,0.00
2022-11-05T03:10:31.923Z,0.00
2022-11-05T03:11:32.000Z,0.00
2022-11-05T03:12:32.104Z,0.00
2022-11-05T03:13:32.176Z,0.00
2022-11-05T03:14:32.253Z,0.00
2022-11-05T03:15:32.326Z,0.00
2022-11-05T03:16:32.385Z,0.00
2022-11-05T03:17:32.485Z,0.00
2022-11-05T03:18:32.522Z,0.00
2022-11-05T03:19:32.611Z,0.00
2022-11-05T03:20:32.685Z,0.00
2022-11-05T03:21:32.777Z,0.00
2022-11-05T03:22:32.878Z,0.00
2022-11-05T03:23:32.946Z,0.00
2022-11-05T03:24:33.020Z,0.00
2022-11-05T03:25:33.116Z,0.00
2022-11-05T03:26:33.193Z,0.00
2022-11-05T03:27:33.322Z,0.00
2022-11-05T03:28:33.370Z,0.00
2022-11-05T03:29:33.439Z,0.00
2022-11-05T03:30:33.529Z,0.00
2022-11-05T03:31:33.649Z,0.00
2022-11-05T03:32:33.719Z,0.00
2022-11-05T03:33:33.804Z,0.00
2022-11-05T03:34:33.878Z,0.00
2022-11-05T03:35:33.984Z,0.00
2022-11-05T03:36:34.060Z,0.00
2022-11-05T03:37:34.225Z,0.00
2022-11-05T03:38:34.229Z,0.00
2022-11-05T03:39:34.325Z,0.00
2022-11-05T03:40:34.396Z,0.00
2022-11-05T03:41:34.501Z,0.00
2022-11-05T03:42:34.596Z,0.00
2022-11-05T03:43:34.675Z,0.00
2022-11-05T03:44:34.754Z,0.00
2022-11-05T03:45:34.850Z,0.00
2022-11-05T03:46:34.927Z,0.00
2022-11-05T03:47:35.040Z,0.00
2022-11-05T03:48:35.197Z,0.00
2022-11-05T03:49:35.171Z,0.00
2022-11-05T03:50:40.975Z,0.00
2022-11-05T03:51:35.351Z,0.00
2022-11-05T03:52:35.456Z,0.00
2022-11-05T03:53:35.495Z,0.00
2022-11-05T03:54:35.603Z,0.00
2022-11-05T03:55:35.678Z,0.00
2022-11-05T03:56:35.781Z,0.00
2022-11-05T03:57:35.880Z,0.00
2022-11-05T03:58:35.966Z,0.00
2022-11-05T03:59:36.047Z,0.00
2022-11-05T04:00:36.114Z,0.00
2022-11-05T04:01:36.358Z,0.00
2022-11-05T04:02:36.418Z,0.00
2022-11-05T04:03:36.592Z,0.00
2022-11-05T04:04:36.468Z,0.00
2022-11-05T04:05:36.551Z,0.00
2022-11-05T04:06:36.620Z,0.00
2022-11-05T04:07:36.724Z,0.00
2022-11-05T04:08:36.772Z,0.00
2022-11-05T04:09:36.837Z,0.00
2022-11-05T04:10:36.937Z,0.00
2022-11-05T04:11:37.013Z,0.00
2022-11-05T04:12:37.146Z,0.00
2022-11-05T04:13:37.190Z,0.00
2022-11-05T04:14:37.278Z,0.00
2022-11-05T04:15:37.358Z,0.00
2022-11-05T04:16:37.447Z,0.00
2022-11-05T04:17:37.558Z,0.00
2022-11-05T04:18:37.622Z,0.00
2022-11-05T04:19:37.701Z,0.00
2022-11-05T04:20:37.791Z,0.00
2022-11-05T04:21:37.870Z,0.00
2022-11-05T04:22:38.002Z,0.00
2022-11-05T04:23:38.045Z,0.00
2022-11-05T04:24:38.125Z,0.00
2022-11-05T04:25:38.192Z,0.00
2022-11-05T04:26:38.293Z,0.00
2022-11-05T04:27:38.398Z,0.00
2022-11-05T04:28:38.444Z,0.00
2022-11-05T04:29:38.522Z,0.00
2022-11-05T04:30:38.630Z,0.00
2022-11-05T04:31:38.720Z,0.00
2022-11-05T04:32:38.821Z,0.00
2022-11-05T04:33:38.875Z,0.00
2022-11-05T04:34:39.009Z,0.00
2022-11-05T04:35:39.058Z,0.00
2022-11-05T04:36:39.158Z,0.00
2022-11-05T04:37:39.268Z,0.00
2022-11-05T04:38:39.336Z,0.00
2022-11-05T04:39:39.410Z,0.00
2022-11-05T04:40:39.512Z,0.00
2022-11-05T04:41:39.590Z,0.00
2022-11-05T04:42:39.701Z,0.00
2022-11-05T04:43:39.743Z,0.00
2022-11-05T04:44:39.813Z,0.00
2022-11-05T04:45:39.889Z,0.00
2022-11-05T04:46:39.980Z,0.00
2022-11-05T04:47:40.079Z,0.00
2022-11-05T04:48:40.158Z,0.00
2022-11-05T04:49:40.231Z,0.00
2022-11-05T04:50:40.333Z,0.00
2022-11-05T04:51:40.398Z,0.00
2022-11-05T04:52:40.489Z,0.00
2022-11-05T04:53:40.532Z,0.00
2022-11-05T04:54:40.634Z,0.00
2022-11-05T04:55:40.705Z,0.00
2022-11-05T04:56:40.809Z,0.00
2022-11-05T04:57:40.903Z,0.00
2022-11-05T04:58:40.976Z,0.00
2022-11-05T04:59:41.053Z,0.00
2022-11-05T05:00:41.222Z,0.00
2022-11-05T05:01:41.350Z,0.00
2022-11-05T05:02:41.336Z,0.00
2022-11-05T05:03:41.410Z,0.00
2022-11-05T05:04:41.511Z,0.00
2022-11-05T05:05:41.577Z,0.00
2022-11-05T05:06:41.673Z,0.00
2022-11-05T05:07:41.765Z,0.00
2022-11-05T05:08:41.847Z,0.00
2022-11-05T05:09:41.935Z,0.00
2022-11-05T05:10:42.021Z,0.00
2022-11-05T05:11:42.107Z,0.00
2022-11-05T05:12:42.226Z,0.00
2022-11-05T05:13:42.289Z,0.00
2022-11-05T05:14:42.360Z,0.00
2022-11-05T05:15:42.438Z,0.00
2022-11-05T05:16:42.549Z,0.00
2022-11-05T05:17:42.647Z,0.00
2022-11-05T05:18:46.251Z,0.00
2022-11-05T05:19:42.782Z,0.00
2022-11-05T05:20:42.880Z,0.00
2022-11-05T05:21:42.963Z,0.00
2022-11-05T05:22:43.074Z,0.00
2022-11-05T05:23:43.110Z,0.00
2022-11-05T05:24:44.620Z,0.00
2022-11-05T05:25:43.302Z,0.00
2022-11-05T05:26:43.390Z,0.00
2022-11-05T05:27:43.480Z,0.00
2022-11-05T05:28:43.545Z,0.00
2022-11-05T05:29:43.619Z,0.00
2022-11-05T05:30:43.727Z,0.00
2022-11-05T05:31:43.804Z,0.00
2022-11-05T05:32:43.931Z,0.00
2022-11-05T05:33:43.969Z,0.00
2022-11-05T05:34:44.062Z,0.00
2022-11-05T05:35:44.139Z,0.00
2022-11-05T05:36:44.240Z,0.00
2022-11-05T05:37:44.348Z,0.00
2022-11-05T05:38:44.423Z,0.00
2022-11-05T05:39:44.491Z,0.00
2022-11-05T05:40:44.580Z,0.00
2022-11-05T05:41:44.661Z,0.00
2022-11-05T05:42:44.764Z,0.00
2022-11-05T05:43:44.808Z,0.00
2022-11-05T05:44:44.878Z,0.00
2022-11-05T05:45:44.958Z,0.00
2022-11-05T05:46:45.132Z,0.00
2022-11-05T05:47:45.149Z,0.00
2022-11-05T05:48:45.215Z,0.00
2022-11-05T05:49:45.293Z,0.00
2022-11-05T05:50:45.400Z,0.00
2022-11-05T05:51:45.474Z,0.00
2022-11-05T05:52:45.575Z,0.00
2022-11-05T05:53:45.606Z,0.00
2022-11-05T05:54:45.722Z,4.00
2022-11-05T05:55:45.794Z,4.00
2022-11-05T05:56:45.858Z,0.00
2022-11-05T05:57:45.945Z,4.00
2022-11-05T05:58:46.033Z,4.00
2022-11-05T05:59:46.110Z,4.00
2022-11-05T06:00:46.217Z,8.00
2022-11-05T06:01:46.411Z,8.00
2022-11-05T06:02:46.602Z,8.00
2022-11-05T06:03:46.452Z,12.00
2022-11-05T06:04:46.519Z,12.00
2022-11-05T06:05:46.597Z,12.00
2022-11-05T06:06:46.671Z,16.00
2022-11-05T06:07:46.762Z,24.00
2022-11-05T06:08:46.852Z,28.00
2022-11-05T06:09:46.931Z,32.00
2022-11-05T06:10:47.052Z,40.00
2022-11-05T06:11:47.078Z,48.00
2022-11-05T06:12:47.185Z,60.00
2022-11-05T06:13:47.222Z,68.00
2022-11-05T06:14:47.294Z,76.00
2022-11-05T06:15:47.368Z,88.00
2022-11-05T06:16:47.484Z,100.00
2022-11-05T06:17:47.587Z,120.00
2022-11-05T06:18:47.633Z,136.00
2022-11-05T06:19:47.723Z,152.00
2022-11-05T06:20:47.808Z,176.00
2022-11-05T06:21:47.888Z,200.00
2022-11-05T06:22:47.997Z,224.00
2022-11-05T06:23:48.036Z,252.00
2022-11-05T06:24:48.148Z,280.00
2022-11-05T06:25:48.222Z,304.00
2022-11-05T06:26:48.330Z,336.00
2022-11-05T06:27:48.420Z,368.00
2022-11-05T06:28:48.496Z,400.00
2022-11-05T06:29:48.588Z,440.00
2022-11-05T06:30:48.682Z,472.00
2022-11-05T06:31:48.760Z,516.00
2022-11-05T06:32:48.884Z,556.00
2022-11-05T06:33:48.950Z,596.00
2022-11-05T06:34:49.010Z,640.00
2022-11-05T06:35:49.088Z,684.00
2022-11-05T06:36:49.201Z,728.00
2022-11-05T06:37:49.306Z,780.00
2022-11-05T06:38:49.373Z,824.00
2022-11-05T06:39:49.453Z,880.00
2022-11-05T06:40:49.546Z,932.00
2022-11-05T06:42:17.870Z,988.00
2022-11-05T06:42:49.732Z,1044.00
2022-11-05T06:43:49.766Z,1104.00
2022-11-05T06:44:49.876Z,1160.00
2022-11-05T06:45:49.954Z,1216.00
2022-11-05T06:46:50.037Z,1276.00
2022-11-05T06:47:50.247Z,1340.00
2022-11-05T06:48:50.201Z,1400.00
2022-11-05T06:49:50.276Z,1460.00
2022-11-05T06:50:50.388Z,1520.00
2022-11-05T06:51:50.463Z,1580.00
2022-11-05T06:52:50.565Z,1644.00
2022-11-05T06:53:50.643Z,1716.00
2022-11-05T06:54:50.708Z,1792.00
2022-11-05T06:55:50.777Z,1868.00
2022-11-05T06:56:50.885Z,1940.00
2022-11-05T06:57:50.984Z,2020.00
2022-11-05T06:58:51.027Z,2096.00
2022-11-05T06:59:54.559Z,2168.00
2022-11-05T07:00:51.238Z,2244.00
2022-11-05T07:01:51.316Z,2320.00
2022-11-05T07:02:51.356Z,2408.00
2022-11-05T07:03:51.397Z,2476.00
2022-11-05T07:04:51.464Z,2552.00
2022-11-05T07:05:51.542Z,2636.00
2022-11-05T07:06:51.636Z,2700.00
2022-11-05T07:07:51.726Z,2748.00
2022-11-05T07:08:51.794Z,2808.00
2022-11-05T07:09:51.876Z,2880.00
2022-11-05T07:10:51.962Z,2948.00
2022-11-05T07:11:52.041Z,3016.00
2022-11-05T07:12:52.169Z,3096.00
2022-11-05T07:13:52.207Z,3164.00
2022-11-05T07:14:52.318Z,3240.00
2022-11-05T07:15:52.402Z,3296.00
2022-11-05T07:16:52.485Z,3352.00
2022-11-05T07:17:52.596Z,3392.00
2022-11-05T07:18:52.665Z,3464.00
2022-11-05T07:19:52.713Z,3528.00
2022-11-05T07:20:52.829Z,3580.00
2022-11-05T07:21:52.906Z,3628.00
2022-11-05T07:22:53.006Z,3688.00
2022-11-05T07:23:53.042Z,3740.00
2022-11-05T07:24:53.151Z,3816.00
2022-11-05T07:25:53.230Z,3940.00
2022-11-05T07:26:53.303Z,4072.00
2022-11-05T07:27:53.401Z,4364.00
2022-11-05T07:28:53.467Z,4576.00
2022-11-05T07:29:53.543Z,4516.00
2022-11-05T07:30:53.627Z,4664.00
2022-11-05T07:31:53.706Z,5904.00
2022-11-05T07:32:53.821Z,7344.00
2022-11-05T07:33:53.866Z,7172.00
2022-11-05T07:34:53.947Z,6340.00
2022-11-05T07:35:54.023Z,8736.00
2022-11-05T07:36:54.131Z,9444.00
2022-11-05T07:37:54.231Z,10752.00
2022-11-05T07:38:59.953Z,12492.00
2022-11-05T07:39:54.365Z,9360.00
2022-11-05T07:40:54.441Z,7252.00
2022-11-05T07:41:54.513Z,5800.00
2022-11-05T07:42:54.639Z,5824.00
2022-11-05T07:43:54.663Z,5788.00
2022-11-05T07:44:54.756Z,5136.00
2022-11-05T07:45:54.837Z,5292.00
2022-11-05T07:46:54.922Z,5716.00
2022-11-05T07:47:55.022Z,5224.00
2022-11-05T07:48:55.087Z,5116.00
2022-11-05T07:49:55.163Z,5172.00
2022-11-05T07:50:55.274Z,5156.00
2022-11-05T07:51:55.333Z,5204.00
2022-11-05T07:52:55.446Z,5268.00
2022-11-05T07:53:55.501Z,5356.00
2022-11-05T07:54:55.571Z,5608.00
2022-11-05T07:55:55.646Z,6000.00
2022-11-05T07:56:55.727Z,7028.00
2022-11-05T07:57:55.817Z,6716.00
2022-11-05T07:58:55.881Z,5764.00
2022-11-05T07:59:55.960Z,6104.00
2022-11-05T08:00:56.180Z,6024.00
2022-11-05T08:01:56.269Z,5548.00
2022-11-05T08:02:58.570Z,5584.00
2022-11-05T08:03:56.274Z,5660.00
2022-11-05T08:04:56.347Z,5720.00
2022-11-05T08:05:56.455Z,7740.00
2022-11-05T08:06:56.529Z,9176.00
2022-11-05T08:07:56.656Z,7344.00
2022-11-05T08:08:56.698Z,8312.00
2022-11-05T08:09:56.801Z,12428.00
2022-11-05T08:10:56.871Z,11492.00
2022-11-05T08:12:02.440Z,7728.00
2022-11-05T08:12:57.045Z,8016.00
2022-11-05T08:13:57.100Z,9684.00
2022-11-05T08:14:57.177Z,6808.00
2022-11-05T08:15:57.271Z,6860.00
2022-11-05T08:16:57.345Z,7020.00
2022-11-05T08:17:57.466Z,6588.00
2022-11-05T08:18:57.506Z,6520.00
2022-11-05T08:19:57.586Z,6392.00
2022-11-05T08:20:57.675Z,6712.00
2022-11-05T08:21:57.746Z,7348.00
2022-11-05T08:22:57.822Z,7988.00
2022-11-05T08:23:57.895Z,6760.00
2022-11-05T08:25:01.416Z,8616.00
2022-11-05T08:25:58.056Z,8692.00
2022-11-05T08:26:58.136Z,7296.00
2022-11-05T08:27:58.227Z,11200.00
2022-11-05T08:28:58.300Z,25472.00
2022-11-05T08:29:58.374Z,34816.00
2022-11-05T08:30:58.451Z,37856.00
2022-11-05T08:31:58.548Z,39456.00
2022-11-05T08:32:58.591Z,40608.00
2022-11-05T08:34:02.414Z,40640.00
2022-11-05T08:34:58.760Z,41792.00
2022-11-05T08:35:58.838Z,40960.00
2022-11-05T08:36:58.899Z,40640.00
2022-11-05T08:37:59.024Z,40192.00
2022-11-05T08:38:59.061Z,39136.00
2022-11-05T08:39:59.171Z,39424.00
2022-11-05T08:40:59.208Z,40672.00
2022-11-05T08:41:59.319Z,42432.00
2022-11-05T08:42:59.421Z,42560.00
2022-11-05T08:43:59.500Z,42240.00
2022-11-05T08:44:59.590Z,42592.00
2022-11-05T08:45:59.668Z,42304.00
2022-11-05T08:46:59.754Z,39968.00
2022-11-05T08:47:59.865Z,38496.00
2022-11-05T08:48:59.912Z,38720.00
2022-11-05T08:49:59.986Z,38976.00
2022-11-05T08:51:00.084Z,38272.00
2022-11-05T08:52:00.150Z,37184.00
2022-11-05T08:53:00.266Z,36224.00
2022-11-05T08:54:00.349Z,34656.00
2022-11-05T08:55:00.422Z,33856.00
2022-11-05T08:56:00.525Z,33024.00
2022-11-05T08:57:00.572Z,32512.00
2022-11-05T08:58:00.667Z,31936.00
2022-11-05T08:59:00.706Z,32032.00
2022-11-05T09:00:00.802Z,32000.00
2022-11-05T09:01:05.053Z,31296.00
2022-11-05T09:02:01.041Z,30144.00
2022-11-05T09:03:01.011Z,30240.00
2022-11-05T09:04:01.067Z,29760.00
2022-11-05T09:05:01.158Z,29216.00
2022-11-05T09:06:01.257Z,28672.00
2022-11-05T09:07:01.343Z,28000.00
2022-11-05T09:08:01.819Z,27648.00
2022-11-05T09:09:01.487Z,27808.00
2022-11-05T09:10:01.573Z,27232.00
2022-11-05T09:11:01.618Z,26528.00
2022-11-05T09:12:17.153Z,25568.00
2022-11-05T09:13:01.783Z,25344.00
2022-11-05T09:14:01.847Z,24672.00
2022-11-05T09:15:01.904Z,24608.00
2022-11-05T09:16:02.016Z,24448.00
2022-11-05T09:17:02.088Z,23936.00
2022-11-05T09:18:02.196Z,23648.00
2022-11-05T09:19:02.238Z,23104.00
2022-11-05T09:20:02.346Z,22784.00
2022-11-05T09:21:02.433Z,22528.00
2022-11-05T09:22:02.507Z,22080.00
2022-11-05T09:23:02.615Z,21760.00
2022-11-05T09:24:02.686Z,21664.00
2022-11-05T09:25:02.758Z,21056.00
2022-11-05T09:26:02.836Z,20352.00
2022-11-05T09:27:02.924Z,19680.00
2022-11-05T09:28:03.025Z,19616.00
2022-11-05T09:29:03.074Z,19392.00
2022-11-05T09:30:03.151Z,19392.00
2022-11-05T09:31:03.224Z,19008.00
2022-11-05T09:32:03.294Z,18368.00
2022-11-05T09:33:03.397Z,18144.00
2022-11-05T09:34:03.475Z,17632.00
2022-11-05T09:35:03.557Z,17440.00
2022-11-05T09:36:03.631Z,17184.00
2022-11-05T09:37:03.714Z,16896.00
2022-11-05T09:38:03.816Z,16992.00
2022-11-05T09:39:03.857Z,16256.00
2022-11-05T09:40:03.929Z,15904.00
2022-11-05T09:41:04.005Z,15584.00
2022-11-05T09:42:04.074Z,15424.00
2022-11-05T09:43:04.180Z,15200.00
2022-11-05T09:44:04.251Z,15040.00
2022-11-05T09:45:04.340Z,14824.00
2022-11-05T09:46:04.430Z,14596.00
2022-11-05T09:47:04.542Z,14704.00
2022-11-05T09:48:04.638Z,14784.00
2022-11-05T09:49:04.685Z,14848.00
2022-11-05T09:50:04.761Z,15264.00
2022-11-05T09:51:04.850Z,15904.00
2022-11-05T09:52:04.941Z,15872.00
2022-11-05T09:53:05.032Z,16064.00
2022-11-05T09:54:05.103Z,23008.00
2022-11-05T09:55:05.233Z,32448.00
2022-11-05T09:56:05.285Z,35616.00
2022-11-05T09:57:05.376Z,31168.00
2022-11-05T09:58:05.489Z,24640.00
2022-11-05T09:59:05.537Z,23168.00
2022-11-05T10:00:05.618Z,23968.00
2022-11-05T10:01:05.721Z,25760.00
2022-11-05T10:02:05.935Z,24192.00
2022-11-05T10:03:05.869Z,19328.00
2022-11-05T10:04:05.921Z,18048.00
2022-11-05T10:05:09.693Z,19328.00
2022-11-05T10:06:06.104Z,21568.00
2022-11-05T10:07:06.194Z,18944.00
2022-11-05T10:08:06.285Z,16000.00
2022-11-05T10:09:06.332Z,15840.00
2022-11-05T10:10:06.402Z,17120.00
2022-11-05T10:11:06.490Z,17440.00
2022-11-05T10:12:06.593Z,16928.00
2022-11-05T10:13:06.688Z,16000.00
2022-11-05T10:14:06.766Z,15808.00
2022-11-05T10:15:06.847Z,14976.00
2022-11-05T10:16:06.925Z,14128.00
2022-11-05T10:17:07.013Z,14252.00
2022-11-05T10:18:07.118Z,15040.00
2022-11-05T10:19:07.157Z,13676.00
2022-11-05T10:20:07.229Z,9980.00
2022-11-05T10:21:07.302Z,7668.00
2022-11-05T10:22:07.603Z,6804.00
2022-11-05T10:23:07.495Z,6636.00
2022-11-05T10:24:07.573Z,6724.00
2022-11-05T10:25:07.639Z,6932.00
2022-11-05T10:26:07.717Z,6640.00
2022-11-05T10:27:07.892Z,6664.00
2022-11-05T10:28:07.877Z,6776.00
2022-11-05T10:29:07.928Z,7396.00
2022-11-05T10:30:08.021Z,7520.00
2022-11-05T10:31:08.074Z,7104.00
2022-11-05T10:32:08.163Z,7496.00
2022-11-05T10:33:08.372Z,7396.00
2022-11-05T10:34:08.312Z,7200.00
2022-11-05T10:35:08.365Z,8488.00
2022-11-05T10:36:08.468Z,8072.00
2022-11-05T10:37:08.528Z,8208.00
2022-11-05T10:38:08.623Z,8444.00
2022-11-05T10:39:08.695Z,8732.00
2022-11-05T10:40:08.750Z,8936.00
2022-11-05T10:41:08.829Z,9688.00
2022-11-05T10:42:08.884Z,10416.00
2022-11-05T10:43:09.299Z,10748.00
2022-11-05T10:44:09.049Z,10572.00
2022-11-05T10:45:09.128Z,10644.00
2022-11-05T10:46:09.215Z,10640.00
2022-11-05T10:47:09.285Z,10764.00
2022-11-05T10:48:09.394Z,10528.00
2022-11-05T10:49:09.465Z,10216.00
2022-11-05T10:50:09.628Z,9872.00
2022-11-05T10:51:09.640Z,9704.00
2022-11-05T10:52:09.690Z,9808.00
2022-11-05T10:53:10.225Z,9880.00
2022-11-05T10:54:09.860Z,10360.00
2022-11-05T10:55:09.938Z,10088.00
2022-11-05T10:56:10.028Z,9872.00
2022-11-05T10:57:10.122Z,10276.00
2022-11-05T10:58:10.229Z,9864.00
2022-11-05T10:59:12.349Z,10296.00
2022-11-05T11:00:10.374Z,10880.00
2022-11-05T11:01:10.506Z,10620.00
2022-11-05T11:02:10.705Z,10804.00
2022-11-05T11:03:10.947Z,10396.00
2022-11-05T11:04:10.684Z,10336.00
2022-11-05T11:05:10.776Z,10184.00
2022-11-05T11:06:10.845Z,9628.00
2022-11-05T11:07:10.941Z,9668.00
2022-11-05T11:08:11.011Z,9996.00
2022-11-05T11:09:11.089Z,10832.00
2022-11-05T11:10:11.181Z,11448.00
2022-11-05T11:11:11.253Z,12332.00
2022-11-05T11:12:11.310Z,12336.00
2022-11-05T11:13:11.705Z,11788.00
2022-11-05T11:14:11.463Z,11124.00
2022-11-05T11:15:11.570Z,10404.00
2022-11-05T11:16:11.650Z,9932.00
2022-11-05T11:17:11.745Z,9392.00
2022-11-05T11:18:11.823Z,8848.00
2022-11-05T11:19:11.887Z,8468.00
2022-11-05T11:20:11.941Z,8140.00
2022-11-05T11:21:12.019Z,7924.00
2022-11-05T11:22:12.070Z,7716.00
2022-11-05T11:23:12.377Z,7628.00
2022-11-05T11:24:12.215Z,7456.00
2022-11-05T11:25:12.293Z,7360.00
2022-11-05T11:26:12.345Z,7168.00
2022-11-05T11:27:12.418Z,7148.00
2022-11-05T11:28:12.519Z,7088.00
2022-11-05T11:29:12.596Z,7108.00
2022-11-05T11:30:12.650Z,7148.00
2022-11-05T11:31:12.742Z,7052.00
2022-11-05T11:32:12.793Z,6932.00
2022-11-05T11:33:13.338Z,6740.00
2022-11-05T11:34:12.953Z,7108.00
2022-11-05T11:35:13.040Z,7184.00
2022-11-05T11:36:13.089Z,7564.00
2022-11-05T11:37:19.049Z,7608.00
2022-11-05T11:38:13.267Z,8364.00
2022-11-05T11:39:13.340Z,8596.00
2022-11-05T11:40:13.391Z,8816.00
2022-11-05T11:41:13.465Z,8888.00
2022-11-05T11:42:13.516Z,9264.00
2022-11-05T11:43:13.945Z,9544.00
2022-11-05T11:44:13.649Z,9480.00
2022-11-05T11:45:13.729Z,9708.00
2022-11-05T11:46:15.099Z,9520.00
2022-11-05T11:47:13.910Z,9020.00
2022-11-05T11:48:13.975Z,8620.00
2022-11-05T11:49:14.050Z,8744.00
2022-11-05T11:50:14.123Z,9212.00
2022-11-05T11:51:14.208Z,9456.00
2022-11-05T11:52:14.257Z,9228.00
2022-11-05T11:53:14.422Z,9268.00
2022-11-05T11:54:14.407Z,9196.00
2022-11-05T11:55:14.487Z,9028.00
2022-11-05T11:56:14.576Z,8968.00
2022-11-05T11:57:15.284Z,8888.00
2022-11-05T11:58:14.751Z,8740.00
2022-11-05T11:59:14.809Z,8664.00
2022-11-05T12:00:14.978Z,8448.00
2022-11-05T12:01:14.977Z,8200.00
2022-11-05T12:02:15.155Z,7876.00
2022-11-05T12:03:15.609Z,7704.00
2022-11-05T12:04:15.188Z,7464.00
2022-11-05T12:05:15.273Z,7268.00
2022-11-05T12:06:15.328Z,7120.00
2022-11-05T12:07:15.410Z,6872.00
2022-11-05T12:08:15.517Z,6704.00
2022-11-05T12:09:15.589Z,6704.00
2022-11-05T12:10:15.643Z,6752.00
2022-11-05T12:11:15.732Z,6896.00
2022-11-05T12:12:15.823Z,7076.00
2022-11-05T12:13:15.942Z,7220.00
2022-11-05T12:14:15.988Z,7268.00
2022-11-05T12:15:16.087Z,7264.00
2022-11-05T12:16:16.140Z,7184.00
2022-11-05T12:17:16.221Z,7188.00
2022-11-05T12:18:16.307Z,7260.00
2022-11-05T12:19:16.339Z,7328.00
2022-11-05T12:20:16.427Z,7428.00
2022-11-05T12:21:25.033Z,7512.00
2022-11-05T12:22:16.576Z,7596.00
2022-11-05T12:23:16.652Z,7688.00
2022-11-05T12:24:16.724Z,7772.00
2022-11-05T12:25:16.782Z,7756.00
2022-11-05T12:26:16.875Z,7812.00
2022-11-05T12:27:16.927Z,7924.00
2022-11-05T12:28:17.038Z,8008.00
2022-11-05T12:29:19.309Z,8068.00
2022-11-05T12:30:17.169Z,8092.00
2022-11-05T12:31:17.237Z,8104.00
2022-11-05T12:32:17.382Z,8072.00
2022-11-05T12:33:17.684Z,7976.00
2022-11-05T12:34:17.483Z,7924.00
2022-11-05T12:35:17.551Z,7860.00
2022-11-05T12:36:17.624Z,7816.00
2022-11-05T12:37:17.717Z,7772.00